createdAt,value
2023-04-26T00:00:47.826Z,0.00
2023-04-26T00:05:47.789Z,0.00
2023-04-26T00:10:47.695Z,0.00
2023-04-26T00:15:47.625Z,0.00
2023-04-26T00:20:47.574Z,0.00
2023-04-26T00:25:47.508Z,0.00
2023-04-26T00:30:47.441Z,0.00
2023-04-26T00:35:47.402Z,0.00
2023-04-26T00:40:47.282Z,0.00
2023-04-26T00:45:47.254Z,0.00
2023-04-26T00:50:47.157Z,0.00
2023-04-26T00:55:47.147Z,0.00
2023-04-26T01:00:47.050Z,0.00
2023-04-26T01:05:46.963Z,0.00
2023-04-26T01:10:46.897Z,0.00
2023-04-26T01:15:46.827Z,0.00
2023-04-26T01:20:46.764Z,0.00
2023-04-26T01:25:46.715Z,0.00
2023-04-26T01:30:46.689Z,0.00
2023-04-26T01:35:46.563Z,0.00
2023-04-26T01:40:46.492Z,0.00
2023-04-26T01:45:46.424Z,0.00
2023-04-26T01:50:46.361Z,0.00
2023-04-26T01:55:46.289Z,0.00
2023-04-26T02:00:46.222Z,0.00
2023-04-26T02:05:46.158Z,0.00
2023-04-26T02:10:46.107Z,0.00
2023-04-26T02:15:46.058Z,0.00
2023-04-26T02:20:45.991Z,0.00
2023-04-26T02:25:45.897Z,0.00
2023-04-26T02:30:45.827Z,0.00
2023-04-26T02:35:45.779Z,0.00
2023-04-26T02:40:45.720Z,0.00
2023-04-26T02:45:45.636Z,0.00
2023-04-26T02:50:45.566Z,0.00
2023-04-26T02:55:45.505Z,0.00
2023-04-26T03:00:45.480Z,0.00
2023-04-26T03:05:45.372Z,0.00
2023-04-26T03:10:45.317Z,0.00
2023-04-26T03:15:45.247Z,0.00
2023-04-26T03:20:45.191Z,0.00
2023-04-26T03:25:45.113Z,8.00
2023-04-26T03:30:45.057Z,8.00
2023-04-26T03:35:44.986Z,24.00
2023-04-26T03:40:44.926Z,48.00
2023-04-26T03:45:44.912Z,100.00
2023-04-26T03:50:44.800Z,176.00
2023-04-26T03:55:44.722Z,288.00
2023-04-26T04:00:44.658Z,448.00
2023-04-26T04:05:44.614Z,676.00
2023-04-26T04:10:44.525Z,956.00
2023-04-26T04:15:44.466Z,1596.00
2023-04-26T04:20:44.404Z,2124.00
2023-04-26T04:25:44.324Z,2852.00
2023-04-26T04:30:44.266Z,3780.00
2023-04-26T04:35:44.195Z,4476.00
2023-04-26T04:40:44.138Z,5248.00
2023-04-26T04:45:44.063Z,5820.00
2023-04-26T04:50:44.025Z,6052.00
2023-04-26T04:55:43.940Z,6828.00
2023-04-26T05:00:43.899Z,7636.00
2023-04-26T05:05:43.801Z,8672.00
2023-04-26T05:10:43.749Z,9632.00
2023-04-26T05:15:43.686Z,10672.00
2023-04-26T05:20:43.623Z,11780.00
2023-04-26T05:25:43.549Z,13744.00
2023-04-26T05:30:43.486Z,19232.00
2023-04-26T05:35:43.414Z,39424.00
2023-04-26T05:40:43.362Z,46176.00
2023-04-26T05:45:43.311Z,36320.00
2023-04-26T05:50:43.233Z,40736.00
2023-04-26T05:55:43.157Z,55296.00
2023-04-26T06:00:43.090Z,56576.00
2023-04-26T06:05:43.086Z,60192.00
2023-04-26T06:10:42.962Z,46880.00
2023-04-26T06:15:42.889Z,58880.00
2023-04-26T06:20:42.844Z,62304.00
2023-04-26T06:25:42.753Z,65120.00
2023-04-26T06:30:42.728Z,69696.00
2023-04-26T06:35:42.644Z,70752.00
2023-04-26T06:40:42.568Z,73600.00
2023-04-26T06:45:43.618Z,67232.00
2023-04-26T06:50:42.461Z,75456.00
2023-04-26T06:55:42.368Z,76160.00
2023-04-26T07:00:42.308Z,82176.00
2023-04-26T07:05:42.275Z,72576.00
2023-04-26T07:10:42.191Z,64960.00
2023-04-26T07:15:42.195Z,47584.00
2023-04-26T07:20:42.096Z,82656.00
2023-04-26T07:25:41.981Z,88096.00
2023-04-26T07:30:41.915Z,91968.00
2023-04-26T07:35:41.837Z,93312.00
2023-04-26T07:40:41.778Z,87808.00
2023-04-26T07:45:41.733Z,92832.00
2023-04-26T07:50:41.683Z,86208.00
2023-04-26T07:55:41.579Z,83456.00
2023-04-26T08:00:41.518Z,82112.00
2023-04-26T08:05:41.688Z,82464.00
2023-04-26T08:10:41.381Z,89376.00
2023-04-26T08:15:41.325Z,83040.00
2023-04-26T08:20:41.266Z,15584.00
2023-04-26T08:25:41.182Z,79552.00
2023-04-26T08:30:41.153Z,81120.00
2023-04-26T08:35:41.100Z,83616.00
2023-04-26T08:40:41.025Z,84128.00
2023-04-26T08:45:40.924Z,78080.00
2023-04-26T08:50:40.886Z,80928.00
2023-04-26T08:55:40.806Z,21088.00
2023-04-26T09:00:40.742Z,24544.00
2023-04-26T09:05:40.676Z,59520.00
2023-04-26T09:10:40.611Z,8796.00
2023-04-26T09:15:40.577Z,43264.00
2023-04-26T09:20:40.488Z,62208.00
2023-04-26T09:25:40.406Z,85344.00
2023-04-26T09:30:40.350Z,13388.00
2023-04-26T09:35:40.277Z,9948.00
2023-04-26T09:40:40.218Z,8728.00
2023-04-26T09:45:40.144Z,74112.00
2023-04-26T09:50:40.093Z,19872.00
2023-04-26T09:55:40.014Z,17280.00
2023-04-26T10:00:39.995Z,77440.00
2023-04-26T10:05:39.885Z,66656.00
2023-04-26T10:10:39.826Z,14600.00
2023-04-26T10:15:39.759Z,15540.00
2023-04-26T10:20:39.696Z,28192.00
2023-04-26T10:25:39.722Z,8932.00
2023-04-26T10:30:39.768Z,9572.00
2023-04-26T10:35:39.694Z,62016.00
2023-04-26T10:40:39.844Z,58656.00
2023-04-26T10:45:39.899Z,13508.00
2023-04-26T10:50:39.856Z,32192.00
2023-04-26T10:55:39.894Z,29504.00
2023-04-26T11:00:39.182Z,18560.00
2023-04-26T11:05:39.101Z,13188.00
2023-04-26T11:10:39.059Z,10296.00
2023-04-26T11:15:39.049Z,12332.00
2023-04-26T11:20:38.922Z,16928.00
2023-04-26T11:25:38.841Z,32480.00
2023-04-26T11:30:38.784Z,22112.00
2023-04-26T11:35:38.712Z,23712.00
2023-04-26T11:40:38.675Z,17216.00
2023-04-26T11:45:38.636Z,20416.00
2023-04-26T11:50:38.517Z,20288.00
2023-04-26T11:55:38.458Z,19424.00
2023-04-26T12:00:38.409Z,14484.00
2023-04-26T12:05:38.522Z,14372.00
2023-04-26T12:10:38.249Z,13636.00
2023-04-26T12:15:38.178Z,13852.00
2023-04-26T12:20:38.115Z,10512.00
2023-04-26T12:25:38.055Z,10716.00
2023-04-26T12:30:37.989Z,14980.00
2023-04-26T12:35:37.908Z,15092.00
2023-04-26T12:40:37.858Z,13308.00
2023-04-26T12:45:37.776Z,13632.00
2023-04-26T12:50:37.715Z,12928.00
2023-04-26T12:55:37.648Z,11392.00
2023-04-26T13:00:37.586Z,10412.00
2023-04-26T13:05:37.534Z,10412.00
2023-04-26T13:10:37.463Z,11300.00
2023-04-26T13:15:37.418Z,12228.00
2023-04-26T13:20:37.330Z,11432.00
2023-04-26T13:25:37.263Z,9608.00
2023-04-26T13:30:37.200Z,8396.00
2023-04-26T13:35:37.129Z,5904.00
2023-04-26T13:40:37.069Z,5276.00
2023-04-26T13:45:39.968Z,7748.00
2023-04-26T13:50:36.951Z,8812.00
2023-04-26T13:55:36.869Z,10316.00
2023-04-26T14:00:36.796Z,13228.00
2023-04-26T14:05:36.755Z,11764.00
2023-04-26T14:10:36.663Z,11260.00
2023-04-26T14:15:36.603Z,11192.00
2023-04-26T14:20:36.541Z,10856.00
2023-04-26T14:25:36.480Z,10360.00
2023-04-26T14:30:36.419Z,10856.00
2023-04-26T14:35:36.353Z,10284.00
2023-04-26T14:40:36.293Z,9368.00
2023-04-26T14:45:43.963Z,7060.00
2023-04-26T14:50:36.153Z,6896.00
2023-04-26T14:55:36.097Z,8032.00
2023-04-26T15:00:36.027Z,7936.00
2023-04-26T15:05:35.971Z,7204.00
2023-04-26T15:10:35.924Z,7204.00
2023-04-26T15:15:35.842Z,6588.00
2023-04-26T15:20:35.766Z,6256.00
2023-04-26T15:25:35.703Z,5948.00
2023-04-26T15:30:35.635Z,6528.00
2023-04-26T15:35:35.573Z,7340.00
2023-04-26T15:40:38.077Z,7524.00
2023-04-26T15:45:35.443Z,5952.00
2023-04-26T15:50:35.408Z,4456.00
2023-04-26T15:55:35.470Z,4696.00
2023-04-26T16:00:35.236Z,5728.00
2023-04-26T16:05:35.180Z,6440.00
2023-04-26T16:10:36.333Z,5912.00
2023-04-26T16:15:35.048Z,5688.00
2023-04-26T16:20:34.974Z,5192.00
2023-04-26T16:25:34.915Z,4468.00
2023-04-26T16:30:34.844Z,3584.00
2023-04-26T16:35:34.788Z,3072.00
2023-04-26T16:40:34.713Z,3008.00
2023-04-26T16:45:34.652Z,3176.00
2023-04-26T16:50:34.582Z,3444.00
2023-04-26T16:55:34.521Z,3024.00
2023-04-26T17:00:34.449Z,3192.00
2023-04-26T17:05:34.388Z,2896.00
2023-04-26T17:10:34.313Z,2544.00
2023-04-26T17:15:34.256Z,2120.00
2023-04-26T17:20:34.183Z,1832.00
2023-04-26T17:25:34.133Z,1560.00
2023-04-26T17:30:34.049Z,1308.00
2023-04-26T17:35:33.992Z,1204.00
2023-04-26T17:40:33.917Z,1060.00
2023-04-26T17:45:33.883Z,856.00
2023-04-26T17:50:33.805Z,800.00
2023-04-26T17:55:33.734Z,648.00
2023-04-26T18:00:33.830Z,504.00
2023-04-26T18:05:33.861Z,404.00
2023-04-26T18:10:33.534Z,328.00
2023-04-26T18:15:33.461Z,256.00
2023-04-26T18:20:33.420Z,180.00
2023-04-26T18:25:33.335Z,132.00
2023-04-26T18:30:33.275Z,80.00
2023-04-26T18:35:33.201Z,48.00
2023-04-26T18:40:33.148Z,24.00
2023-04-26T18:45:33.065Z,12.00
2023-04-26T18:50:33.013Z,4.00
2023-04-26T18:55:32.930Z,4.00
2023-04-26T19:00:32.872Z,0.00
2023-04-26T19:05:32.803Z,0.00
2023-04-26T19:10:32.746Z,0.00
2023-04-26T19:15:32.685Z,0.00
2023-04-26T19:20:32.613Z,0.00
2023-04-26T19:25:32.544Z,0.00
2023-04-26T19:30:32.496Z,0.00
2023-04-26T19:35:32.415Z,0.00
2023-04-26T19:40:32.353Z,0.00
2023-04-26T19:45:32.298Z,0.00
2023-04-26T19:50:32.228Z,0.00
2023-04-26T19:55:32.152Z,0.00
2023-04-26T20:00:32.228Z,0.00
2023-04-26T20:05:32.024Z,0.00
2023-04-26T20:10:31.969Z,0.00
2023-04-26T20:15:33.750Z,0.00
2023-04-26T20:20:31.841Z,0.00
2023-04-26T20:25:31.768Z,0.00
2023-04-26T20:30:31.699Z,0.00
2023-04-26T20:35:31.624Z,0.00
2023-04-26T20:40:31.566Z,0.00
2023-04-26T20:45:31.490Z,0.00
2023-04-26T20:50:31.443Z,0.00
2023-04-26T20:55:31.365Z,0.00
2023-04-26T21:00:31.302Z,0.00
2023-04-26T21:05:31.239Z,0.00
2023-04-26T21:10:31.199Z,0.00
2023-04-26T21:15:31.102Z,0.00
2023-04-26T21:20:31.033Z,0.00
2023-04-26T21:25:30.967Z,0.00
2023-04-26T21:30:30.904Z,0.00
2023-04-26T21:35:30.830Z,0.00
2023-04-26T21:40:30.769Z,0.00
2023-04-26T21:45:30.692Z,0.00
2023-04-26T21:50:30.657Z,0.00
2023-04-26T21:55:30.562Z,0.00
2023-04-26T22:00:30.512Z,0.00
2023-04-26T22:05:30.427Z,0.00
2023-04-26T22:10:30.468Z,0.00
2023-04-26T22:15:30.302Z,0.00
2023-04-26T22:20:30.240Z,0.00
2023-04-26T22:25:30.170Z,0.00
2023-04-26T22:30:30.118Z,0.00
2023-04-26T22:35:30.088Z,0.00
2023-04-26T22:40:29.979Z,0.00
2023-04-26T22:45:29.919Z,0.00
2023-04-26T22:50:29.852Z,0.00
2023-04-26T22:55:29.778Z,0.00
2023-04-26T23:00:29.724Z,0.00
2023-04-26T23:05:29.649Z,0.00
2023-04-26T23:10:29.596Z,0.00
2023-04-26T23:15:29.520Z,0.00
2023-04-26T23:20:29.465Z,0.00
2023-04-26T23:25:29.400Z,0.00
2023-04-26T23:30:29.334Z,0.00
2023-04-26T23:35:29.260Z,0.00
2023-04-26T23:40:29.204Z,0.00
2023-04-26T23:45:29.132Z,0.00
2023-04-26T23:50:29.073Z,0.00
2023-04-26T23:55:29.006Z,0.00
